sensor_id;sensor_type;location;lat;lon;timestamp;P1;durP1;ratioP1;P2;durP2;ratioP2
53267;SDS011;39156;51.176;6.738;2023-07-13T00:00:25;33.08;;;31.13;;
53267;SDS011;39156;51.176;6.738;2023-07-13T00:02:51;36.78;;;34.72;;
53267;SDS011;39156;51.176;6.738;2023-07-13T00:05:21;33.95;;;31.92;;
53267;SDS011;39156;51.176;6.738;2023-07-13T00:07:48;35.60;;;33.33;;
53267;SDS011;39156;51.176;6.738;2023-07-13T00:10:15;33.33;;;31.30;;
53267;SDS011;39156;51.176;6.738;2023-07-13T00:12:41;34.75;;;32.75;;
53267;SDS011;39156;51.176;6.738;2023-07-13T00:15:14;33.40;;;31.40;;
53267;SDS011;39156;51.176;6.738;2023-07-13T00:17:50;33.15;;;31.15;;
53267;SDS011;39156;51.176;6.738;2023-07-13T00:22:42;34.08;;;32.08;;
53267;SDS011;39156;51.176;6.738;2023-07-13T00:25:11;34.47;;;32.58;;
53267;SDS011;39156;51.176;6.738;2023-07-13T00:27:37;33.42;;;31.58;;
53267;SDS011;39156;51.176;6.738;2023-07-13T00:30:03;35.67;;;33.53;;
53267;SDS011;39156;51.176;6.738;2023-07-13T00:32:30;34.38;;;32.38;;
53267;SDS011;39156;51.176;6.738;2023-07-13T00:34:56;32.88;;;30.80;;
53267;SDS011;39156;51.176;6.738;2023-07-13T00:37:23;34.83;;;32.72;;
53267;SDS011;39156;51.176;6.738;2023-07-13T00:39:49;36.80;;;33.33;;
53267;SDS011;39156;51.176;6.738;2023-07-13T00:42:14;34.00;;;32.10;;
53267;SDS011;39156;51.176;6.738;2023-07-13T00:44:40;35.40;;;32.37;;
53267;SDS011;39156;51.176;6.738;2023-07-13T00:47:06;32.53;;;30.73;;
53267;SDS011;39156;51.176;6.738;2023-07-13T00:49:32;36.70;;;34.03;;
53267;SDS011;39156;51.176;6.738;2023-07-13T00:52:02;32.85;;;30.80;;
53267;SDS011;39156;51.176;6.738;2023-07-13T00:54:32;34.55;;;32.33;;
53267;SDS011;39156;51.176;6.738;2023-07-13T00:57:05;33.33;;;31.45;;
53267;SDS011;39156;51.176;6.738;2023-07-13T00:59:41;33.35;;;31.35;;
53267;SDS011;39156;51.176;6.738;2023-07-13T01:02:11;35.63;;;33.58;;
53267;SDS011;39156;51.176;6.738;2023-07-13T01:04:37;32.90;;;31.00;;
53267;SDS011;39156;51.176;6.738;2023-07-13T01:07:03;33.38;;;31.50;;
53267;SDS011;39156;51.176;6.738;2023-07-13T01:09:31;33.58;;;31.58;;
53267;SDS011;39156;51.176;6.738;2023-07-13T01:11:57;34.83;;;32.87;;
53267;SDS011;39156;51.176;6.738;2023-07-13T01:14:23;33.78;;;31.77;;
53267;SDS011;39156;51.176;6.738;2023-07-13T01:16:49;33.47;;;31.57;;
53267;SDS011;39156;51.176;6.738;2023-07-13T01:19:18;34.40;;;32.53;;
53267;SDS011;39156;51.176;6.738;2023-07-13T01:22:01;35.00;;;33.00;;
53267;SDS011;39156;51.176;6.738;2023-07-13T01:24:33;33.22;;;31.27;;
53267;SDS011;39156;51.176;6.738;2023-07-13T01:27:01;33.58;;;31.50;;
53267;SDS011;39156;51.176;6.738;2023-07-13T01:29:28;33.33;;;31.40;;
53267;SDS011;39156;51.176;6.738;2023-07-13T01:31:54;35.75;;;33.55;;
53267;SDS011;39156;51.176;6.738;2023-07-13T01:34:20;34.93;;;32.97;;
53267;SDS011;39156;51.176;6.738;2023-07-13T01:36:46;32.60;;;30.67;;
53267;SDS011;39156;51.176;6.738;2023-07-13T01:39:11;33.43;;;31.43;;
53267;SDS011;39156;51.176;6.738;2023-07-13T01:41:37;33.67;;;31.73;;
53267;SDS011;39156;51.176;6.738;2023-07-13T01:44:03;35.70;;;33.67;;
53267;SDS011;39156;51.176;6.738;2023-07-13T01:46:28;36.93;;;34.80;;
53267;SDS011;39156;51.176;6.738;2023-07-13T01:48:54;35.10;;;33.10;;
53267;SDS011;39156;51.176;6.738;2023-07-13T01:51:20;36.27;;;33.97;;
53267;SDS011;39156;51.176;6.738;2023-07-13T01:53:46;32.40;;;30.47;;
53267;SDS011;39156;51.176;6.738;2023-07-13T01:56:11;34.13;;;32.23;;
53267;SDS011;39156;51.176;6.738;2023-07-13T01:58:37;35.13;;;33.10;;
53267;SDS011;39156;51.176;6.738;2023-07-13T02:01:03;32.90;;;31.00;;
53267;SDS011;39156;51.176;6.738;2023-07-13T02:03:28;34.13;;;32.23;;
53267;SDS011;39156;51.176;6.738;2023-07-13T02:05:54;34.87;;;32.77;;
53267;SDS011;39156;51.176;6.738;2023-07-13T02:08:20;36.20;;;34.20;;
53267;SDS011;39156;51.176;6.738;2023-07-13T02:10:45;33.63;;;31.80;;
53267;SDS011;39156;51.176;6.738;2023-07-13T02:13:11;34.63;;;32.60;;
53267;SDS011;39156;51.176;6.738;2023-07-13T02:15:40;33.10;;;31.30;;
53267;SDS011;39156;51.176;6.738;2023-07-13T02:18:06;32.92;;;31.13;;
53267;SDS011;39156;51.176;6.738;2023-07-13T02:20:31;32.50;;;30.67;;
53267;SDS011;39156;51.176;6.738;2023-07-13T02:22:57;35.10;;;33.07;;
53267;SDS011;39156;51.176;6.738;2023-07-13T02:25:23;34.80;;;32.87;;
53267;SDS011;39156;51.176;6.738;2023-07-13T02:27:50;33.40;;;31.55;;
53267;SDS011;39156;51.176;6.738;2023-07-13T02:30:15;33.47;;;31.57;;
53267;SDS011;39156;51.176;6.738;2023-07-13T02:32:41;35.97;;;34.03;;
53267;SDS011;39156;51.176;6.738;2023-07-13T02:35:08;34.92;;;32.70;;
53267;SDS011;39156;51.176;6.738;2023-07-13T02:37:34;32.53;;;30.73;;
53267;SDS011;39156;51.176;6.738;2023-07-13T02:40:00;34.00;;;32.00;;
53267;SDS011;39156;51.176;6.738;2023-07-13T02:42:25;33.70;;;31.73;;
53267;SDS011;39156;51.176;6.738;2023-07-13T02:44:51;35.23;;;33.00;;
53267;SDS011;39156;51.176;6.738;2023-07-13T02:47:17;33.07;;;31.17;;
53267;SDS011;39156;51.176;6.738;2023-07-13T02:49:43;34.05;;;32.15;;
53267;SDS011;39156;51.176;6.738;2023-07-13T02:52:09;37.00;;;34.93;;
53267;SDS011;39156;51.176;6.738;2023-07-13T02:54:34;36.17;;;34.23;;
53267;SDS011;39156;51.176;6.738;2023-07-13T02:57:00;33.70;;;31.80;;
53267;SDS011;39156;51.176;6.738;2023-07-13T02:59:26;33.13;;;31.20;;
53267;SDS011;39156;51.176;6.738;2023-07-13T03:01:52;33.10;;;31.30;;
53267;SDS011;39156;51.176;6.738;2023-07-13T03:04:17;34.47;;;32.57;;
53267;SDS011;39156;51.176;6.738;2023-07-13T03:06:44;33.97;;;32.05;;
53267;SDS011;39156;51.176;6.738;2023-07-13T03:09:10;35.07;;;33.07;;
53267;SDS011;39156;51.176;6.738;2023-07-13T03:11:37;34.15;;;32.17;;
53267;SDS011;39156;51.176;6.738;2023-07-13T03:14:03;33.63;;;31.83;;
53267;SDS011;39156;51.176;6.738;2023-07-13T03:16:29;34.93;;;32.73;;
53267;SDS011;39156;51.176;6.738;2023-07-13T03:18:54;34.97;;;32.37;;
53267;SDS011;39156;51.176;6.738;2023-07-13T03:21:20;32.97;;;31.05;;
53267;SDS011;39156;51.176;6.738;2023-07-13T03:23:46;33.08;;;31.08;;
53267;SDS011;39156;51.176;6.738;2023-07-13T03:26:13;35.15;;;33.05;;
53267;SDS011;39156;51.176;6.738;2023-07-13T03:28:42;35.35;;;33.22;;
53267;SDS011;39156;51.176;6.738;2023-07-13T03:31:09;33.95;;;31.95;;
53267;SDS011;39156;51.176;6.738;2023-07-13T03:33:38;34.72;;;32.70;;
53267;SDS011;39156;51.176;6.738;2023-07-13T03:36:04;33.90;;;31.80;;
53267;SDS011;39156;51.176;6.738;2023-07-13T03:38:33;33.03;;;31.23;;
53267;SDS011;39156;51.176;6.738;2023-07-13T03:40:59;35.47;;;33.40;;
53267;SDS011;39156;51.176;6.738;2023-07-13T03:43:25;33.83;;;31.58;;
53267;SDS011;39156;51.176;6.738;2023-07-13T03:45:50;36.00;;;33.77;;
53267;SDS011;39156;51.176;6.738;2023-07-13T03:48:16;34.58;;;32.55;;
53267;SDS011;39156;51.176;6.738;2023-07-13T03:50:42;34.70;;;32.70;;
53267;SDS011;39156;51.176;6.738;2023-07-13T03:53:07;32.37;;;30.27;;
53267;SDS011;39156;51.176;6.738;2023-07-13T03:55:33;33.30;;;31.40;;
53267;SDS011;39156;51.176;6.738;2023-07-13T03:58:00;33.03;;;31.17;;
53267;SDS011;39156;51.176;6.738;2023-07-13T04:00:59;34.90;;;32.90;;
53267;SDS011;39156;51.176;6.738;2023-07-13T04:03:27;33.25;;;31.33;;
53267;SDS011;39156;51.176;6.738;2023-07-13T04:05:55;33.40;;;31.50;;
53267;SDS011;39156;51.176;6.738;2023-07-13T04:08:24;33.28;;;30.90;;
53267;SDS011;39156;51.176;6.738;2023-07-13T04:10:55;32.60;;;30.55;;
53267;SDS011;39156;51.176;6.738;2023-07-13T04:13:22;34.22;;;32.33;;
53267;SDS011;39156;51.176;6.738;2023-07-13T04:15:48;33.58;;;31.35;;
53267;SDS011;39156;51.176;6.738;2023-07-13T04:18:15;34.40;;;32.53;;
53267;SDS011;39156;51.176;6.738;2023-07-13T04:20:40;33.33;;;31.43;;
53267;SDS011;39156;51.176;6.738;2023-07-13T04:23:06;33.17;;;31.17;;
53267;SDS011;39156;51.176;6.738;2023-07-13T04:25:32;34.43;;;32.07;;
53267;SDS011;39156;51.176;6.738;2023-07-13T04:27:57;33.37;;;31.37;;
53267;SDS011;39156;51.176;6.738;2023-07-13T04:30:23;33.93;;;32.03;;
53267;SDS011;39156;51.176;6.738;2023-07-13T04:32:52;33.13;;;31.17;;
53267;SDS011;39156;51.176;6.738;2023-07-13T04:35:19;34.67;;;32.67;;
53267;SDS011;39156;51.176;6.738;2023-07-13T04:37:48;33.80;;;31.70;;
53267;SDS011;39156;51.176;6.738;2023-07-13T04:40:15;33.10;;;31.20;;
53267;SDS011;39156;51.176;6.738;2023-07-13T04:42:42;34.45;;;31.55;;
53267;SDS011;39156;51.176;6.738;2023-07-13T04:45:09;32.92;;;31.02;;
53267;SDS011;39156;51.176;6.738;2023-07-13T04:47:35;33.77;;;31.03;;
53267;SDS011;39156;51.176;6.738;2023-07-13T04:50:00;30.67;;;28.97;;
53267;SDS011;39156;51.176;6.738;2023-07-13T04:52:26;32.58;;;30.77;;
53267;SDS011;39156;51.176;6.738;2023-07-13T04:54:52;35.13;;;33.03;;
53267;SDS011;39156;51.176;6.738;2023-07-13T04:57:18;34.37;;;32.07;;
53267;SDS011;39156;51.176;6.738;2023-07-13T04:59:43;31.90;;;30.05;;
53267;SDS011;39156;51.176;6.738;2023-07-13T05:02:09;32.45;;;30.45;;
53267;SDS011;39156;51.176;6.738;2023-07-13T05:04:35;30.30;;;28.60;;
53267;SDS011;39156;51.176;6.738;2023-07-13T05:07:01;31.50;;;29.70;;
53267;SDS011;39156;51.176;6.738;2023-07-13T05:09:27;32.72;;;30.48;;
53267;SDS011;39156;51.176;6.738;2023-07-13T05:11:52;29.90;;;28.05;;
53267;SDS011;39156;51.176;6.738;2023-07-13T05:14:18;31.05;;;28.90;;
53267;SDS011;39156;51.176;6.738;2023-07-13T05:16:44;30.45;;;28.65;;
53267;SDS011;39156;51.176;6.738;2023-07-13T05:19:09;30.50;;;28.58;;
53267;SDS011;39156;51.176;6.738;2023-07-13T05:21:37;28.23;;;26.63;;
53267;SDS011;39156;51.176;6.738;2023-07-13T05:24:02;28.65;;;26.85;;
53267;SDS011;39156;51.176;6.738;2023-07-13T05:26:28;29.67;;;27.80;;
53267;SDS011;39156;51.176;6.738;2023-07-13T05:28:54;29.85;;;28.00;;
53267;SDS011;39156;51.176;6.738;2023-07-13T05:31:20;29.45;;;27.55;;
53267;SDS011;39156;51.176;6.738;2023-07-13T05:33:45;30.27;;;28.55;;
53267;SDS011;39156;51.176;6.738;2023-07-13T05:36:11;30.10;;;28.25;;
53267;SDS011;39156;51.176;6.738;2023-07-13T05:38:37;31.77;;;29.95;;
53267;SDS011;39156;51.176;6.738;2023-07-13T05:41:03;30.77;;;28.98;;
53267;SDS011;39156;51.176;6.738;2023-07-13T05:43:28;29.80;;;27.70;;
53267;SDS011;39156;51.176;6.738;2023-07-13T05:45:55;32.08;;;30.08;;
53267;SDS011;39156;51.176;6.738;2023-07-13T05:48:22;30.08;;;28.23;;
53267;SDS011;39156;51.176;6.738;2023-07-13T05:53:14;29.73;;;27.92;;
53267;SDS011;39156;51.176;6.738;2023-07-13T05:55:43;29.48;;;27.77;;
53267;SDS011;39156;51.176;6.738;2023-07-13T05:58:18;30.52;;;28.30;;
53267;SDS011;39156;51.176;6.738;2023-07-13T06:03:10;30.23;;;27.88;;
53267;SDS011;39156;51.176;6.738;2023-07-13T06:05:36;29.13;;;27.27;;
53267;SDS011;39156;51.176;6.738;2023-07-13T06:08:03;29.00;;;27.17;;
53267;SDS011;39156;51.176;6.738;2023-07-13T06:10:32;28.65;;;27.08;;
53267;SDS011;39156;51.176;6.738;2023-07-13T06:12:58;30.20;;;28.13;;
53267;SDS011;39156;51.176;6.738;2023-07-13T06:17:50;28.08;;;26.38;;
53267;SDS011;39156;51.176;6.738;2023-07-13T06:22:41;29.52;;;27.63;;
53267;SDS011;39156;51.176;6.738;2023-07-13T06:25:07;29.45;;;27.45;;
53267;SDS011;39156;51.176;6.738;2023-07-13T06:27:33;28.00;;;26.30;;
53267;SDS011;39156;51.176;6.738;2023-07-13T06:29:59;28.58;;;26.80;;
53267;SDS011;39156;51.176;6.738;2023-07-13T06:32:25;28.92;;;27.02;;
53267;SDS011;39156;51.176;6.738;2023-07-13T06:34:51;28.45;;;26.40;;
53267;SDS011;39156;51.176;6.738;2023-07-13T06:37:17;27.80;;;26.20;;
53267;SDS011;39156;51.176;6.738;2023-07-13T06:39:43;27.48;;;25.73;;
53267;SDS011;39156;51.176;6.738;2023-07-13T06:42:09;28.25;;;26.50;;
53267;SDS011;39156;51.176;6.738;2023-07-13T06:44:35;27.63;;;25.92;;
53267;SDS011;39156;51.176;6.738;2023-07-13T06:47:01;28.15;;;26.38;;
53267;SDS011;39156;51.176;6.738;2023-07-13T06:49:27;28.42;;;26.70;;
53267;SDS011;39156;51.176;6.738;2023-07-13T06:51:52;28.70;;;26.80;;
53267;SDS011;39156;51.176;6.738;2023-07-13T06:56:44;29.20;;;27.40;;
53267;SDS011;39156;51.176;6.738;2023-07-13T07:01:35;30.95;;;29.00;;
53267;SDS011;39156;51.176;6.738;2023-07-13T07:04:01;30.15;;;27.67;;
53267;SDS011;39156;51.176;6.738;2023-07-13T07:06:27;31.00;;;29.05;;
53267;SDS011;39156;51.176;6.738;2023-07-13T07:08:52;31.17;;;29.10;;
53267;SDS011;39156;51.176;6.738;2023-07-13T07:11:23;30.73;;;28.83;;
53267;SDS011;39156;51.176;6.738;2023-07-13T07:13:51;32.00;;;29.88;;
53267;SDS011;39156;51.176;6.738;2023-07-13T07:16:18;31.23;;;29.20;;
53267;SDS011;39156;51.176;6.738;2023-07-13T07:18:44;32.13;;;30.15;;
53267;SDS011;39156;51.176;6.738;2023-07-13T07:21:11;33.35;;;31.27;;
53267;SDS011;39156;51.176;6.738;2023-07-13T07:23:38;31.13;;;29.20;;
53267;SDS011;39156;51.176;6.738;2023-07-13T07:26:03;32.30;;;30.30;;
53267;SDS011;39156;51.176;6.738;2023-07-13T07:28:29;30.67;;;28.60;;
53267;SDS011;39156;51.176;6.738;2023-07-13T07:30:56;31.85;;;29.85;;
53267;SDS011;39156;51.176;6.738;2023-07-13T07:33:23;29.55;;;27.85;;
53267;SDS011;39156;51.176;6.738;2023-07-13T07:35:50;31.17;;;29.08;;
53267;SDS011;39156;51.176;6.738;2023-07-13T07:38:16;29.63;;;27.73;;
53267;SDS011;39156;51.176;6.738;2023-07-13T07:40:42;31.50;;;29.50;;
53267;SDS011;39156;51.176;6.738;2023-07-13T07:43:09;29.30;;;27.35;;
53267;SDS011;39156;51.176;6.738;2023-07-13T07:45:37;29.08;;;27.20;;
53267;SDS011;39156;51.176;6.738;2023-07-13T07:48:04;28.85;;;27.23;;
53267;SDS011;39156;51.176;6.738;2023-07-13T07:50:30;30.13;;;28.08;;
53267;SDS011;39156;51.176;6.738;2023-07-13T07:52:57;29.20;;;27.27;;
53267;SDS011;39156;51.176;6.738;2023-07-13T07:57:50;28.58;;;26.58;;
53267;SDS011;39156;51.176;6.738;2023-07-13T08:02:43;28.60;;;26.90;;
53267;SDS011;39156;51.176;6.738;2023-07-13T08:05:09;29.90;;;28.10;;
53267;SDS011;39156;51.176;6.738;2023-07-13T08:07:36;27.67;;;25.90;;
53267;SDS011;39156;51.176;6.738;2023-07-13T08:10:03;28.42;;;26.63;;
53267;SDS011;39156;51.176;6.738;2023-07-13T08:12:30;29.75;;;27.45;;
53267;SDS011;39156;51.176;6.738;2023-07-13T08:15:00;28.77;;;26.92;;
53267;SDS011;39156;51.176;6.738;2023-07-13T08:19:52;29.10;;;27.30;;
53267;SDS011;39156;51.176;6.738;2023-07-13T08:24:43;30.85;;;28.55;;
53267;SDS011;39156;51.176;6.738;2023-07-13T08:27:10;29.63;;;27.92;;
53267;SDS011;39156;51.176;6.738;2023-07-13T08:29:36;30.45;;;28.75;;
53267;SDS011;39156;51.176;6.738;2023-07-13T08:32:03;28.73;;;27.00;;
53267;SDS011;39156;51.176;6.738;2023-07-13T08:34:34;29.23;;;27.52;;
53267;SDS011;39156;51.176;6.738;2023-07-13T08:37:00;31.42;;;29.55;;
53267;SDS011;39156;51.176;6.738;2023-07-13T08:39:27;29.75;;;27.90;;
53267;SDS011;39156;51.176;6.738;2023-07-13T08:41:57;30.88;;;28.95;;
53267;SDS011;39156;51.176;6.738;2023-07-13T08:44:36;29.60;;;27.80;;
53267;SDS011;39156;51.176;6.738;2023-07-13T08:47:16;31.10;;;28.98;;
53267;SDS011;39156;51.176;6.738;2023-07-13T08:49:44;29.20;;;27.42;;
53267;SDS011;39156;51.176;6.738;2023-07-13T08:52:13;30.38;;;28.27;;
53267;SDS011;39156;51.176;6.738;2023-07-13T08:54:57;29.25;;;27.30;;
53267;SDS011;39156;51.176;6.738;2023-07-13T08:57:33;28.45;;;26.65;;
53267;SDS011;39156;51.176;6.738;2023-07-13T08:59:59;30.63;;;27.92;;
53267;SDS011;39156;51.176;6.738;2023-07-13T09:05:15;29.35;;;27.48;;
53267;SDS011;39156;51.176;6.738;2023-07-13T09:10:48;29.30;;;27.33;;
53267;SDS011;39156;51.176;6.738;2023-07-13T09:13:41;30.17;;;28.15;;
53267;SDS011;39156;51.176;6.738;2023-07-13T09:16:23;30.73;;;28.67;;
53267;SDS011;39156;51.176;6.738;2023-07-13T09:18:51;29.67;;;27.77;;
53267;SDS011;39156;51.176;6.738;2023-07-13T09:21:23;30.73;;;28.90;;
53267;SDS011;39156;51.176;6.738;2023-07-13T09:27:18;29.77;;;28.00;;
53267;SDS011;39156;51.176;6.738;2023-07-13T09:29:50;30.45;;;28.60;;
53267;SDS011;39156;51.176;6.738;2023-07-13T09:32:30;30.23;;;28.40;;
53267;SDS011;39156;51.176;6.738;2023-07-13T09:34:57;30.23;;;28.27;;
53267;SDS011;39156;51.176;6.738;2023-07-13T09:37:27;28.98;;;27.38;;
53267;SDS011;39156;51.176;6.738;2023-07-13T09:39:56;30.00;;;28.40;;
53267;SDS011;39156;51.176;6.738;2023-07-13T09:42:24;30.52;;;28.50;;
53267;SDS011;39156;51.176;6.738;2023-07-13T09:44:52;30.10;;;28.23;;
53267;SDS011;39156;51.176;6.738;2023-07-13T09:47:22;31.10;;;29.00;;
53267;SDS011;39156;51.176;6.738;2023-07-13T09:50:02;31.15;;;29.02;;
53267;SDS011;39156;51.176;6.738;2023-07-13T09:52:45;30.75;;;28.77;;
53267;SDS011;39156;51.176;6.738;2023-07-13T09:55:23;30.75;;;28.95;;
53267;SDS011;39156;51.176;6.738;2023-07-13T09:57:49;31.48;;;29.67;;
53267;SDS011;39156;51.176;6.738;2023-07-13T10:02:59;31.48;;;29.67;;
53267;SDS011;39156;51.176;6.738;2023-07-13T10:05:41;32.35;;;30.45;;
53267;SDS011;39156;51.176;6.738;2023-07-13T10:08:43;30.80;;;29.00;;
53267;SDS011;39156;51.176;6.738;2023-07-13T10:11:09;29.73;;;28.05;;
53267;SDS011;39156;51.176;6.738;2023-07-13T10:13:46;30.67;;;28.88;;
53267;SDS011;39156;51.176;6.738;2023-07-13T10:16:20;29.20;;;27.52;;
53267;SDS011;39156;51.176;6.738;2023-07-13T10:18:48;29.40;;;27.55;;
53267;SDS011;39156;51.176;6.738;2023-07-13T10:21:21;29.38;;;27.58;;
53267;SDS011;39156;51.176;6.738;2023-07-13T10:23:51;30.67;;;28.52;;
53267;SDS011;39156;51.176;6.738;2023-07-13T10:26:26;31.30;;;29.30;;
53267;SDS011;39156;51.176;6.738;2023-07-13T10:28:57;28.92;;;26.98;;
53267;SDS011;39156;51.176;6.738;2023-07-13T10:31:29;30.20;;;28.33;;
53267;SDS011;39156;51.176;6.738;2023-07-13T10:33:56;30.88;;;29.08;;
53267;SDS011;39156;51.176;6.738;2023-07-13T10:39:00;31.75;;;29.45;;
53267;SDS011;39156;51.176;6.738;2023-07-13T10:41:30;29.27;;;27.65;;
53267;SDS011;39156;51.176;6.738;2023-07-13T10:44:03;30.73;;;29.02;;
53267;SDS011;39156;51.176;6.738;2023-07-13T10:46:32;29.63;;;27.92;;
53267;SDS011;39156;51.176;6.738;2023-07-13T10:48:58;30.25;;;28.48;;
53267;SDS011;39156;51.176;6.738;2023-07-13T10:51:30;30.52;;;28.73;;
53267;SDS011;39156;51.176;6.738;2023-07-13T10:57:19;32.63;;;30.73;;
53267;SDS011;39156;51.176;6.738;2023-07-13T10:59:47;31.63;;;29.63;;
53267;SDS011;39156;51.176;6.738;2023-07-13T11:02:34;29.73;;;28.00;;
53267;SDS011;39156;51.176;6.738;2023-07-13T11:10:59;31.13;;;29.33;;
53267;SDS011;39156;51.176;6.738;2023-07-13T11:13:35;31.02;;;29.08;;
53267;SDS011;39156;51.176;6.738;2023-07-13T11:18:39;30.30;;;28.42;;
53267;SDS011;39156;51.176;6.738;2023-07-13T11:21:21;30.67;;;28.95;;
53267;SDS011;39156;51.176;6.738;2023-07-13T11:23:52;29.95;;;28.25;;
53267;SDS011;39156;51.176;6.738;2023-07-13T11:26:39;31.42;;;29.73;;
53267;SDS011;39156;51.176;6.738;2023-07-13T11:32:24;30.92;;;29.13;;
53267;SDS011;39156;51.176;6.738;2023-07-13T11:34:55;31.27;;;29.33;;
53267;SDS011;39156;51.176;6.738;2023-07-13T11:37:21;29.83;;;28.10;;
53267;SDS011;39156;51.176;6.738;2023-07-13T11:39:48;30.73;;;28.92;;
53267;SDS011;39156;51.176;6.738;2023-07-13T11:42:17;30.80;;;28.90;;
53267;SDS011;39156;51.176;6.738;2023-07-13T11:44:50;29.48;;;27.77;;
53267;SDS011;39156;51.176;6.738;2023-07-13T11:47:19;31.35;;;29.63;;
53267;SDS011;39156;51.176;6.738;2023-07-13T11:49:51;31.23;;;29.23;;
53267;SDS011;39156;51.176;6.738;2023-07-13T11:52:32;31.75;;;29.77;;
53267;SDS011;39156;51.176;6.738;2023-07-13T11:55:03;29.60;;;27.70;;
53267;SDS011;39156;51.176;6.738;2023-07-13T11:57:44;29.98;;;28.05;;
53267;SDS011;39156;51.176;6.738;2023-07-13T12:00:17;32.25;;;30.48;;
53267;SDS011;39156;51.176;6.738;2023-07-13T12:02:49;31.77;;;29.90;;
53267;SDS011;39156;51.176;6.738;2023-07-13T12:05:18;29.42;;;27.90;;
53267;SDS011;39156;51.176;6.738;2023-07-13T12:07:46;31.08;;;29.30;;
53267;SDS011;39156;51.176;6.738;2023-07-13T12:13:03;30.90;;;29.00;;
53267;SDS011;39156;51.176;6.738;2023-07-13T12:18:20;29.02;;;27.48;;
53267;SDS011;39156;51.176;6.738;2023-07-13T12:20:49;29.90;;;28.10;;
53267;SDS011;39156;51.176;6.738;2023-07-13T12:23:23;30.65;;;29.00;;
53267;SDS011;39156;51.176;6.738;2023-07-13T12:25:57;28.73;;;27.23;;
53267;SDS011;39156;51.176;6.738;2023-07-13T12:28:33;30.10;;;28.40;;
53267;SDS011;39156;51.176;6.738;2023-07-13T12:36:35;31.17;;;29.38;;
53267;SDS011;39156;51.176;6.738;2023-07-13T12:39:11;29.67;;;27.98;;
53267;SDS011;39156;51.176;6.738;2023-07-13T12:42:11;28.42;;;26.85;;
53267;SDS011;39156;51.176;6.738;2023-07-13T12:44:53;31.27;;;29.25;;
53267;SDS011;39156;51.176;6.738;2023-07-13T12:47:22;31.30;;;29.40;;
53267;SDS011;39156;51.176;6.738;2023-07-13T12:49:49;29.63;;;27.95;;
53267;SDS011;39156;51.176;6.738;2023-07-13T12:52:23;29.08;;;27.40;;
53267;SDS011;39156;51.176;6.738;2023-07-13T12:55:03;30.30;;;28.50;;
53267;SDS011;39156;51.176;6.738;2023-07-13T12:57:50;30.30;;;28.40;;
53267;SDS011;39156;51.176;6.738;2023-07-13T13:00:20;31.63;;;29.02;;
53267;SDS011;39156;51.176;6.738;2023-07-13T13:02:55;28.98;;;27.25;;
53267;SDS011;39156;51.176;6.738;2023-07-13T13:05:22;30.00;;;28.35;;
53267;SDS011;39156;51.176;6.738;2023-07-13T13:07:51;30.98;;;28.92;;
53267;SDS011;39156;51.176;6.738;2023-07-13T13:10:17;30.35;;;28.42;;
53267;SDS011;39156;51.176;6.738;2023-07-13T13:12:43;30.38;;;28.25;;
53267;SDS011;39156;51.176;6.738;2023-07-13T13:15:09;30.40;;;28.65;;
53267;SDS011;39156;51.176;6.738;2023-07-13T13:17:37;29.25;;;27.67;;
53267;SDS011;39156;51.176;6.738;2023-07-13T13:20:19;30.80;;;29.00;;
53267;SDS011;39156;51.176;6.738;2023-07-13T13:22:47;30.77;;;29.10;;
53267;SDS011;39156;51.176;6.738;2023-07-13T13:25:13;30.05;;;28.35;;
53267;SDS011;39156;51.176;6.738;2023-07-13T13:27:43;29.90;;;28.17;;
53267;SDS011;39156;51.176;6.738;2023-07-13T13:30:14;30.38;;;28.45;;
53267;SDS011;39156;51.176;6.738;2023-07-13T13:32:46;31.05;;;29.00;;
53267;SDS011;39156;51.176;6.738;2023-07-13T13:35:16;31.02;;;29.13;;
53267;SDS011;39156;51.176;6.738;2023-07-13T13:37:43;32.30;;;30.48;;
53267;SDS011;39156;51.176;6.738;2023-07-13T13:40:14;32.35;;;30.55;;
53267;SDS011;39156;51.176;6.738;2023-07-13T13:42:42;32.58;;;30.30;;
53267;SDS011;39156;51.176;6.738;2023-07-13T13:45:11;32.17;;;30.38;;
53267;SDS011;39156;51.176;6.738;2023-07-13T13:47:38;31.77;;;29.17;;
53267;SDS011;39156;51.176;6.738;2023-07-13T13:50:15;29.95;;;28.25;;
53267;SDS011;39156;51.176;6.738;2023-07-13T13:52:45;30.08;;;28.38;;
53267;SDS011;39156;51.176;6.738;2023-07-13T13:55:12;31.23;;;29.42;;
53267;SDS011;39156;51.176;6.738;2023-07-13T13:57:44;29.17;;;27.50;;
53267;SDS011;39156;51.176;6.738;2023-07-13T14:00:14;29.63;;;27.92;;
53267;SDS011;39156;51.176;6.738;2023-07-13T14:02:43;30.73;;;29.02;;
53267;SDS011;39156;51.176;6.738;2023-07-13T14:05:18;29.83;;;28.23;;
53267;SDS011;39156;51.176;6.738;2023-07-13T14:07:49;30.83;;;28.80;;
53267;SDS011;39156;51.176;6.738;2023-07-13T14:10:15;29.80;;;28.20;;
53267;SDS011;39156;51.176;6.738;2023-07-13T14:12:44;29.75;;;27.95;;
53267;SDS011;39156;51.176;6.738;2023-07-13T14:15:25;32.08;;;30.27;;
53267;SDS011;39156;51.176;6.738;2023-07-13T14:17:53;30.10;;;28.50;;
53267;SDS011;39156;51.176;6.738;2023-07-13T14:20:20;30.45;;;28.85;;
53267;SDS011;39156;51.176;6.738;2023-07-13T14:22:48;31.60;;;29.90;;
53267;SDS011;39156;51.176;6.738;2023-07-13T14:25:16;29.08;;;27.50;;
53267;SDS011;39156;51.176;6.738;2023-07-13T14:27:43;29.67;;;28.08;;
53267;SDS011;39156;51.176;6.738;2023-07-13T14:32:40;31.25;;;29.58;;
53267;SDS011;39156;51.176;6.738;2023-07-13T14:37:41;32.33;;;30.48;;
53267;SDS011;39156;51.176;6.738;2023-07-13T14:40:28;30.35;;;28.45;;
53267;SDS011;39156;51.176;6.738;2023-07-13T14:42:56;31.70;;;29.88;;
53267;SDS011;39156;51.176;6.738;2023-07-13T14:45:23;31.80;;;29.80;;
53267;SDS011;39156;51.176;6.738;2023-07-13T14:47:49;30.73;;;29.02;;
53267;SDS011;39156;51.176;6.738;2023-07-13T14:52:45;31.98;;;29.88;;
53267;SDS011;39156;51.176;6.738;2023-07-13T14:55:19;34.38;;;31.90;;
53267;SDS011;39156;51.176;6.738;2023-07-13T14:57:45;30.58;;;28.70;;
53267;SDS011;39156;51.176;6.738;2023-07-13T15:02:41;33.65;;;31.65;;
53267;SDS011;39156;51.176;6.738;2023-07-13T15:07:46;32.00;;;30.05;;
53267;SDS011;39156;51.176;6.738;2023-07-13T15:10:23;32.53;;;30.63;;
53267;SDS011;39156;51.176;6.738;2023-07-13T15:13:00;32.85;;;30.95;;
53267;SDS011;39156;51.176;6.738;2023-07-13T15:15:50;32.70;;;30.80;;
53267;SDS011;39156;51.176;6.738;2023-07-13T15:18:18;32.97;;;31.13;;
53267;SDS011;39156;51.176;6.738;2023-07-13T15:20:48;32.40;;;30.55;;
53267;SDS011;39156;51.176;6.738;2023-07-13T15:23:17;32.60;;;30.70;;
53267;SDS011;39156;51.176;6.738;2023-07-13T15:25:47;33.60;;;31.58;;
53267;SDS011;39156;51.176;6.738;2023-07-13T15:28:14;31.27;;;29.50;;
53267;SDS011;39156;51.176;6.738;2023-07-13T15:30:47;30.90;;;29.20;;
53267;SDS011;39156;51.176;6.738;2023-07-13T15:33:28;34.67;;;31.98;;
53267;SDS011;39156;51.176;6.738;2023-07-13T15:36:01;34.35;;;32.35;;
53267;SDS011;39156;51.176;6.738;2023-07-13T15:38:30;33.38;;;31.20;;
53267;SDS011;39156;51.176;6.738;2023-07-13T15:40:56;33.58;;;31.48;;
53267;SDS011;39156;51.176;6.738;2023-07-13T15:43:22;33.53;;;31.52;;
53267;SDS011;39156;51.176;6.738;2023-07-13T15:45:48;32.78;;;30.90;;
53267;SDS011;39156;51.176;6.738;2023-07-13T15:48:17;32.90;;;30.90;;
53267;SDS011;39156;51.176;6.738;2023-07-13T15:50:50;33.25;;;31.13;;